Top Airports Right Now

Destinations with the worst weather right now

# Airport Conditions Runway Details
1
Flag of United States PPIZ
Point Lay LRRS Airport
3519
1073
221956Z AUTO 05037G41KT 1/2SM -SN FZFG OVC004 M21/M23 A2948 RMK AO2 PK WND 05044/1858 SLP987 P0000 T12061228 FZRANO
2
Flag of United States PABR
Wiley Post Will Rogers Memorial Airport
7100
2164
221953Z 06023G30KT 3SM BLSN HZ OVC090 M20/M23 A2975 RMK PK WND 06032/1905 VIS 1 1/2 NE
3
Flag of Sweden ESSA
Stockholm-Arlanda Airport
10830
3301
221950Z 14015KT 4700 BR OVC002 03/03 Q0991 BECMG 5000
4
Flag of Cape Verde GVAC
Amílcar Cabral International Airport
9843
3000
222000Z 06015KT 4000 HZ NSC 24/16 Q1015 NOSIG
5
Flag of Denmark EKCH
Copenhagen Kastrup Airport
11811
3600
221950Z 14009KT 0800 R22L/P1500N R04L/P1500N R12/P1500N -DZ FG VV003 06/06 Q0983 TEMPO 2000
6
Flag of Belgium EBBR
Brussels Airport
11936
3638
221950Z 24022G34KT 9999 FEW032 BKN040 08/04 Q0983 NOSIG
7
Flag of Indonesia WIMN
Silangit Airport
7875
2400
221930Z 25007KT 0200 R27/0275 FG OVC001 18/18 Q1020 NOSIG=
8
Flag of Germany EDDG
Münster Osnabrück Airport
7119
2170
221950Z AUTO 21020G35KT 180V280 9000 SHRA FEW010 SCT031 BKN039 FEW///TCU 11/08 Q0978 TEMPO NSW
9
Flag of Netherlands EHAM
Amsterdam Airport Schiphol
12467
3800
221955Z 26028G38KT 230V290 7000 RADZ FEW010 SCT017 BKN020 07/05 Q0975 TEMPO BKN015
10
Flag of United States KNFW
NAS Fort Worth JRB / Carswell Field
12000
3658
221952Z 28015G21KT 10SM CLR 27/M02 A2977 RMK AO2 SLP066 T02671017 $
11
Flag of United States KSEM
Craig Field
8002
2439
222005Z AUTO 22017G22KT 10SM SCT055 BKN070 24/12 A2985 RMK AO2
12
Flag of United States KHBG
Hattiesburg Bobby L Chain Municipal Airport
6099
1859
221953Z AUTO 21016G36KT 10SM BKN049 24/12 A2986 RMK AO2 PK WND 17036/1947 SLP111 T02440122
13
Flag of United States KGPM
Grand Prairie Municipal Airport
4001
1220
221950Z 27015G18KT 10SM SKC 27/M01 A2977
14
Flag of United States KOZA
Ozona Municipal Airport
6000
1829
221955Z AUTO 30019G29KT 10SM CLR 25/M05 A2996 RMK AO2
15
Flag of United States K4O4
McCurtain County Regional Airport
5000
1524
221955Z AUTO 25017G22KT 10SM CLR 26/10 A2968 RMK AO2
16
Flag of United States KHZE
Mercer County Regional Airport
5000
1524
221955Z AUTO 27017G22KT 10SM CLR 10/M01 A2991 RMK AO2
17
Flag of United States KBPG
Big Spring Mc Mahon-Wrinkle Airport
8802
2683
221955Z AUTO 30018G22KT 10SM CLR 22/M06 A2995 RMK AO2 T02221063
18
Flag of Canada CYIK
Ivujivik Airport
3521
1073
222000Z 14020KT 6SM IC HZ DRSN BKN100 BKN110 M32/M36 A2970 RMK AC5AC2 LAST STFD OB/NEXT SLP065
19
Flag of Canada CYEK
Arviat Airport
4000
1219
222000Z 34024G30KT 1/8SM IC BLSN VV003 M29/M32 A2998 RMK BLSN8 SLP157
20
Flag of United States KEXX
Davidson County Airport
5000
1524
222005Z AUTO 20016G22KT 10SM CLR 19/02 A2982 RMK AO2 T01860016
21
Flag of Canada CYZG
Salluit Airport
3500
1067
222000Z 19022G28KT 3SM BLSN BKN064 M33/M37 A2961 RMK BLSN1SC3 SLP069
22
Flag of United States KBGF
Winchester Municipal Airport
5003
1525
221955Z AUTO 22020G26KT 10SM OVC036 16/09 A2978 RMK A01
23
Flag of United States KOXD
Miami University Airport
4011
1223
221955Z AUTO 33007KT 1SM +RA OVC002 13/13 A2960 RMK AO2 LTG DSNT E P0024 T01310126
24
Flag of United States KLUL
Hesler Noble Field
5512
1680
221955Z AUTO 22015G24KT 10SM BKN050 23/11 A2986 RMK A02 T02350108
25
Flag of United States KJQF
Concord-Padgett Regional Airport
7403
2256
221950Z 24016G24KT 10SM CLR 18/01 A2988
26
Flag of United States PALP
Alpine Airstrip
5000
1524
221958Z 06017G28KT 3/8SM BLSN BKN003 M20/M23 A2964
27
Flag of United States KHZR
False River Regional Airport
5002
1525
221955Z AUTO 13016G24KT 10SM BKN039 OVC047 23/15 A2986 RMK AO2 T02340147
28
Flag of United States KCWF
Chennault International Airport
10701
3262
221953Z 22018G23KT 10SM SCT033 OVC050 24/15 A2986
29
Flag of United States KBUY
Burlington Alamance Regional Airport
5000
1524
221954Z AUTO 19019G29KT 10SM CLR 19/00 A2982 RMK AO2 PK WND 20029/1953 SLP097 T01940000
30
Flag of United States KS25
Watford City Municipal Airport
4401
1341
221955Z AUTO 27019G24KT 10SM CLR 09/02 A2990 RMK AO2
  • Windy  
  • Gusting Wind  
  • Crosswind  
  • Reduced Sight  
  • Runway Visual Range  
  • Low Ceiling  
  • Foggy  
  • Heavy Rain  
  • Heavy Snow  
  • Thunderstorm  
  • VATSIM ATC Online  
  • VATSIM Event Ongoing  
  • VATSIM Popular Airport